sensor_id;sensor_type;location;lat;lon;timestamp;temperature;humidity
20815;DHT22;10568;48.176;16.316;2023-03-05T00:00:13;2.90;99.90
20815;DHT22;10568;48.176;16.316;2023-03-05T00:02:40;3.00;99.90
20815;DHT22;10568;48.176;16.316;2023-03-05T00:05:06;3.00;99.90
20815;DHT22;10568;48.176;16.316;2023-03-05T00:07:32;2.90;99.90
20815;DHT22;10568;48.176;16.316;2023-03-05T00:10:03;2.90;99.90
20815;DHT22;10568;48.176;16.316;2023-03-05T00:12:29;2.90;99.90
20815;DHT22;10568;48.176;16.316;2023-03-05T00:14:55;2.90;99.90
20815;DHT22;10568;48.176;16.316;2023-03-05T00:17:21;3.00;99.90
20815;DHT22;10568;48.176;16.316;2023-03-05T00:19:46;2.90;99.90
20815;DHT22;10568;48.176;16.316;2023-03-05T00:22:12;2.90;99.90
20815;DHT22;10568;48.176;16.316;2023-03-05T00:24:38;2.90;99.90
20815;DHT22;10568;48.176;16.316;2023-03-05T00:27:04;2.90;99.90
20815;DHT22;10568;48.176;16.316;2023-03-05T00:29:29;2.90;99.90
20815;DHT22;10568;48.176;16.316;2023-03-05T00:31:55;2.90;99.90
20815;DHT22;10568;48.176;16.316;2023-03-05T00:34:21;2.90;99.90
20815;DHT22;10568;48.176;16.316;2023-03-05T00:36:56;2.90;99.90
20815;DHT22;10568;48.176;16.316;2023-03-05T00:39:21;3.00;99.90
20815;DHT22;10568;48.176;16.316;2023-03-05T00:41:48;2.90;99.90
20815;DHT22;10568;48.176;16.316;2023-03-05T00:44:14;2.90;99.90
20815;DHT22;10568;48.176;16.316;2023-03-05T00:46:39;2.90;99.90
20815;DHT22;10568;48.176;16.316;2023-03-05T00:49:05;2.90;99.90
20815;DHT22;10568;48.176;16.316;2023-03-05T00:51:32;2.90;99.90
20815;DHT22;10568;48.176;16.316;2023-03-05T00:53:58;2.90;99.90
20815;DHT22;10568;48.176;16.316;2023-03-05T00:56:24;2.90;99.90
20815;DHT22;10568;48.176;16.316;2023-03-05T00:58:50;2.90;99.90
20815;DHT22;10568;48.176;16.316;2023-03-05T01:01:16;2.90;99.90
20815;DHT22;10568;48.176;16.316;2023-03-05T01:03:42;2.90;99.90
20815;DHT22;10568;48.176;16.316;2023-03-05T01:06:10;2.90;99.90
20815;DHT22;10568;48.176;16.316;2023-03-05T01:08:36;2.90;99.90
20815;DHT22;10568;48.176;16.316;2023-03-05T01:11:04;2.90;99.90
20815;DHT22;10568;48.176;16.316;2023-03-05T01:13:30;2.90;99.90
20815;DHT22;10568;48.176;16.316;2023-03-05T01:16:23;2.90;99.90
20815;DHT22;10568;48.176;16.316;2023-03-05T01:18:49;2.90;99.90
20815;DHT22;10568;48.176;16.316;2023-03-05T01:21:15;3.00;99.90
20815;DHT22;10568;48.176;16.316;2023-03-05T01:23:41;3.00;99.90
20815;DHT22;10568;48.176;16.316;2023-03-05T01:26:06;3.00;99.90
20815;DHT22;10568;48.176;16.316;2023-03-05T01:28:33;3.00;99.90
20815;DHT22;10568;48.176;16.316;2023-03-05T01:30:59;3.00;99.90
20815;DHT22;10568;48.176;16.316;2023-03-05T01:33:25;3.00;99.90
20815;DHT22;10568;48.176;16.316;2023-03-05T01:35:51;3.00;99.90
20815;DHT22;10568;48.176;16.316;2023-03-05T01:38:26;3.00;99.90
20815;DHT22;10568;48.176;16.316;2023-03-05T01:40:51;3.00;99.90
20815;DHT22;10568;48.176;16.316;2023-03-05T01:43:28;3.00;99.90
20815;DHT22;10568;48.176;16.316;2023-03-05T01:48:46;3.00;99.90
20815;DHT22;10568;48.176;16.316;2023-03-05T01:51:12;3.00;99.90
20815;DHT22;10568;48.176;16.316;2023-03-05T01:53:39;3.00;99.90
20815;DHT22;10568;48.176;16.316;2023-03-05T01:56:04;3.00;99.90
20815;DHT22;10568;48.176;16.316;2023-03-05T01:58:31;3.00;99.90
20815;DHT22;10568;48.176;16.316;2023-03-05T02:00:57;3.10;99.90
20815;DHT22;10568;48.176;16.316;2023-03-05T02:03:23;3.00;99.90
20815;DHT22;10568;48.176;16.316;2023-03-05T02:05:50;3.10;99.90
20815;DHT22;10568;48.176;16.316;2023-03-05T02:08:19;3.00;99.90
20815;DHT22;10568;48.176;16.316;2023-03-05T02:10:48;3.00;99.90
20815;DHT22;10568;48.176;16.316;2023-03-05T02:13:21;3.00;99.90
20815;DHT22;10568;48.176;16.316;2023-03-05T02:15:48;3.00;99.90
20815;DHT22;10568;48.176;16.316;2023-03-05T02:18:15;3.00;99.90
20815;DHT22;10568;48.176;16.316;2023-03-05T02:20:48;3.00;99.90
20815;DHT22;10568;48.176;16.316;2023-03-05T02:23:14;3.00;99.90
20815;DHT22;10568;48.176;16.316;2023-03-05T02:25:41;3.00;99.90
20815;DHT22;10568;48.176;16.316;2023-03-05T02:30:41;3.00;99.90
20815;DHT22;10568;48.176;16.316;2023-03-05T02:33:07;3.00;99.90
20815;DHT22;10568;48.176;16.316;2023-03-05T02:35:33;3.00;99.90
20815;DHT22;10568;48.176;16.316;2023-03-05T02:37:59;3.00;99.90
20815;DHT22;10568;48.176;16.316;2023-03-05T02:40:24;3.00;99.90
20815;DHT22;10568;48.176;16.316;2023-03-05T02:42:50;3.00;99.90
20815;DHT22;10568;48.176;16.316;2023-03-05T02:45:16;3.00;99.90
20815;DHT22;10568;48.176;16.316;2023-03-05T02:47:42;3.00;99.90
20815;DHT22;10568;48.176;16.316;2023-03-05T02:50:09;3.00;99.90
20815;DHT22;10568;48.176;16.316;2023-03-05T02:52:35;3.00;99.90
20815;DHT22;10568;48.176;16.316;2023-03-05T02:55:01;3.00;99.90
20815;DHT22;10568;48.176;16.316;2023-03-05T02:57:27;3.10;99.90
20815;DHT22;10568;48.176;16.316;2023-03-05T02:59:53;3.00;99.90
20815;DHT22;10568;48.176;16.316;2023-03-05T03:02:19;3.10;99.90
20815;DHT22;10568;48.176;16.316;2023-03-05T03:04:45;3.00;99.90
20815;DHT22;10568;48.176;16.316;2023-03-05T03:07:11;3.10;99.90
20815;DHT22;10568;48.176;16.316;2023-03-05T03:09:38;3.10;99.90
20815;DHT22;10568;48.176;16.316;2023-03-05T03:12:05;3.10;99.90
20815;DHT22;10568;48.176;16.316;2023-03-05T03:14:32;3.10;99.90
20815;DHT22;10568;48.176;16.316;2023-03-05T03:17:11;3.10;99.90
20815;DHT22;10568;48.176;16.316;2023-03-05T03:19:38;3.10;99.90
20815;DHT22;10568;48.176;16.316;2023-03-05T03:22:05;3.10;99.90
20815;DHT22;10568;48.176;16.316;2023-03-05T03:24:33;3.10;99.90
20815;DHT22;10568;48.176;16.316;2023-03-05T03:26:59;3.10;99.90
20815;DHT22;10568;48.176;16.316;2023-03-05T03:29:25;3.10;99.90
20815;DHT22;10568;48.176;16.316;2023-03-05T03:31:51;3.10;99.90
20815;DHT22;10568;48.176;16.316;2023-03-05T03:34:17;3.10;99.90
20815;DHT22;10568;48.176;16.316;2023-03-05T03:36:44;3.10;99.90
20815;DHT22;10568;48.176;16.316;2023-03-05T03:39:10;3.10;99.90
20815;DHT22;10568;48.176;16.316;2023-03-05T03:41:40;3.10;99.90
20815;DHT22;10568;48.176;16.316;2023-03-05T03:44:06;3.10;99.90
20815;DHT22;10568;48.176;16.316;2023-03-05T03:46:35;3.10;99.90
20815;DHT22;10568;48.176;16.316;2023-03-05T03:49:01;3.20;99.90
20815;DHT22;10568;48.176;16.316;2023-03-05T03:51:27;3.10;99.90
20815;DHT22;10568;48.176;16.316;2023-03-05T03:53:53;3.10;99.90
20815;DHT22;10568;48.176;16.316;2023-03-05T03:56:19;3.10;99.90
20815;DHT22;10568;48.176;16.316;2023-03-05T03:58:45;3.20;99.90
20815;DHT22;10568;48.176;16.316;2023-03-05T04:01:10;3.20;99.90
20815;DHT22;10568;48.176;16.316;2023-03-05T04:03:36;3.20;99.90
20815;DHT22;10568;48.176;16.316;2023-03-05T04:06:02;3.20;99.90
20815;DHT22;10568;48.176;16.316;2023-03-05T04:08:28;3.20;99.90
20815;DHT22;10568;48.176;16.316;2023-03-05T04:10:54;3.20;99.90
20815;DHT22;10568;48.176;16.316;2023-03-05T04:13:20;3.20;99.90
20815;DHT22;10568;48.176;16.316;2023-03-05T04:15:46;3.20;99.90
20815;DHT22;10568;48.176;16.316;2023-03-05T04:18:12;3.20;99.90
20815;DHT22;10568;48.176;16.316;2023-03-05T04:20:37;3.20;99.90
20815;DHT22;10568;48.176;16.316;2023-03-05T04:23:03;3.20;99.90
20815;DHT22;10568;48.176;16.316;2023-03-05T04:25:29;3.20;99.90
20815;DHT22;10568;48.176;16.316;2023-03-05T04:27:54;3.20;99.90
20815;DHT22;10568;48.176;16.316;2023-03-05T04:30:20;3.20;99.90
20815;DHT22;10568;48.176;16.316;2023-03-05T04:32:46;3.20;99.90
20815;DHT22;10568;48.176;16.316;2023-03-05T04:35:12;3.20;99.90
20815;DHT22;10568;48.176;16.316;2023-03-05T04:37:38;3.20;99.90
20815;DHT22;10568;48.176;16.316;2023-03-05T04:40:04;3.20;99.90
20815;DHT22;10568;48.176;16.316;2023-03-05T04:42:30;3.20;99.90
20815;DHT22;10568;48.176;16.316;2023-03-05T04:44:56;3.20;99.90
20815;DHT22;10568;48.176;16.316;2023-03-05T04:47:21;3.20;99.90
20815;DHT22;10568;48.176;16.316;2023-03-05T04:49:47;3.20;99.90
20815;DHT22;10568;48.176;16.316;2023-03-05T04:52:13;3.20;99.90
20815;DHT22;10568;48.176;16.316;2023-03-05T04:54:57;3.20;99.90
20815;DHT22;10568;48.176;16.316;2023-03-05T04:57:24;3.10;99.90
20815;DHT22;10568;48.176;16.316;2023-03-05T04:59:49;3.20;99.90
20815;DHT22;10568;48.176;16.316;2023-03-05T05:02:15;3.20;99.90
20815;DHT22;10568;48.176;16.316;2023-03-05T05:04:41;3.20;99.90
20815;DHT22;10568;48.176;16.316;2023-03-05T05:07:15;3.20;99.90
20815;DHT22;10568;48.176;16.316;2023-03-05T05:09:41;3.20;99.90
20815;DHT22;10568;48.176;16.316;2023-03-05T05:12:07;3.20;99.90
20815;DHT22;10568;48.176;16.316;2023-03-05T05:14:33;3.20;99.90
20815;DHT22;10568;48.176;16.316;2023-03-05T05:16:59;3.20;99.90
20815;DHT22;10568;48.176;16.316;2023-03-05T05:19:26;3.20;99.90
20815;DHT22;10568;48.176;16.316;2023-03-05T05:21:51;3.20;99.90
20815;DHT22;10568;48.176;16.316;2023-03-05T05:24:17;3.20;99.90
20815;DHT22;10568;48.176;16.316;2023-03-05T05:26:43;3.10;99.90
20815;DHT22;10568;48.176;16.316;2023-03-05T05:29:08;3.20;99.90
20815;DHT22;10568;48.176;16.316;2023-03-05T05:31:34;3.20;99.90
20815;DHT22;10568;48.176;16.316;2023-03-05T05:34:00;3.10;99.90
20815;DHT22;10568;48.176;16.316;2023-03-05T05:36:25;3.20;99.90
20815;DHT22;10568;48.176;16.316;2023-03-05T05:38:51;3.20;99.90
20815;DHT22;10568;48.176;16.316;2023-03-05T05:41:18;3.20;99.90
20815;DHT22;10568;48.176;16.316;2023-03-05T05:44:21;3.20;99.90
20815;DHT22;10568;48.176;16.316;2023-03-05T05:46:47;3.20;99.90
20815;DHT22;10568;48.176;16.316;2023-03-05T05:49:13;3.20;99.90
20815;DHT22;10568;48.176;16.316;2023-03-05T05:51:38;3.20;99.90
20815;DHT22;10568;48.176;16.316;2023-03-05T05:54:04;3.20;99.90
20815;DHT22;10568;48.176;16.316;2023-03-05T05:56:30;3.20;99.90
20815;DHT22;10568;48.176;16.316;2023-03-05T05:58:56;3.20;99.90
20815;DHT22;10568;48.176;16.316;2023-03-05T06:03:49;3.20;99.90
20815;DHT22;10568;48.176;16.316;2023-03-05T06:06:18;3.30;99.90
20815;DHT22;10568;48.176;16.316;2023-03-05T06:08:44;3.30;99.90
20815;DHT22;10568;48.176;16.316;2023-03-05T06:11:10;3.20;99.90
20815;DHT22;10568;48.176;16.316;2023-03-05T06:13:37;3.20;99.90
20815;DHT22;10568;48.176;16.316;2023-03-05T06:16:05;3.30;99.90
20815;DHT22;10568;48.176;16.316;2023-03-05T06:18:33;3.30;99.90
20815;DHT22;10568;48.176;16.316;2023-03-05T06:21:12;3.30;99.90
20815;DHT22;10568;48.176;16.316;2023-03-05T06:23:38;3.30;99.90
20815;DHT22;10568;48.176;16.316;2023-03-05T06:26:05;3.40;99.90
20815;DHT22;10568;48.176;16.316;2023-03-05T06:28:32;3.40;99.90
20815;DHT22;10568;48.176;16.316;2023-03-05T06:31:03;3.40;99.90
20815;DHT22;10568;48.176;16.316;2023-03-05T06:33:30;3.40;99.90
20815;DHT22;10568;48.176;16.316;2023-03-05T06:35:56;3.50;99.90
20815;DHT22;10568;48.176;16.316;2023-03-05T06:38:22;3.40;99.90
20815;DHT22;10568;48.176;16.316;2023-03-05T06:40:48;3.50;99.90
20815;DHT22;10568;48.176;16.316;2023-03-05T06:43:14;3.50;99.90
20815;DHT22;10568;48.176;16.316;2023-03-05T06:45:39;3.60;99.90
20815;DHT22;10568;48.176;16.316;2023-03-05T06:48:05;3.60;99.90
20815;DHT22;10568;48.176;16.316;2023-03-05T06:50:34;3.60;99.90
20815;DHT22;10568;48.176;16.316;2023-03-05T06:53:00;3.60;99.90
20815;DHT22;10568;48.176;16.316;2023-03-05T06:55:26;3.70;99.90
20815;DHT22;10568;48.176;16.316;2023-03-05T06:57:52;3.70;99.90
20815;DHT22;10568;48.176;16.316;2023-03-05T07:00:18;3.70;99.90
20815;DHT22;10568;48.176;16.316;2023-03-05T07:02:43;3.80;99.90
20815;DHT22;10568;48.176;16.316;2023-03-05T07:05:09;3.80;99.90
20815;DHT22;10568;48.176;16.316;2023-03-05T07:07:35;3.80;99.90
20815;DHT22;10568;48.176;16.316;2023-03-05T07:10:01;3.80;99.90
20815;DHT22;10568;48.176;16.316;2023-03-05T07:12:27;3.90;99.90
20815;DHT22;10568;48.176;16.316;2023-03-05T07:14:53;3.90;99.90
20815;DHT22;10568;48.176;16.316;2023-03-05T07:17:19;3.90;99.90
20815;DHT22;10568;48.176;16.316;2023-03-05T07:19:45;4.00;99.90
20815;DHT22;10568;48.176;16.316;2023-03-05T07:22:10;3.90;99.90
20815;DHT22;10568;48.176;16.316;2023-03-05T07:24:36;4.00;99.90
20815;DHT22;10568;48.176;16.316;2023-03-05T07:27:02;3.90;99.90
20815;DHT22;10568;48.176;16.316;2023-03-05T07:29:28;4.10;99.90
20815;DHT22;10568;48.176;16.316;2023-03-05T07:31:54;4.10;99.90
20815;DHT22;10568;48.176;16.316;2023-03-05T07:34:21;4.10;99.90
20815;DHT22;10568;48.176;16.316;2023-03-05T07:36:50;4.20;99.90
20815;DHT22;10568;48.176;16.316;2023-03-05T07:39:17;4.30;99.90
20815;DHT22;10568;48.176;16.316;2023-03-05T07:41:46;4.30;99.90
20815;DHT22;10568;48.176;16.316;2023-03-05T07:44:14;4.30;99.90
20815;DHT22;10568;48.176;16.316;2023-03-05T07:46:41;4.30;99.90
20815;DHT22;10568;48.176;16.316;2023-03-05T07:49:07;4.40;99.90
20815;DHT22;10568;48.176;16.316;2023-03-05T07:51:32;4.40;99.90
20815;DHT22;10568;48.176;16.316;2023-03-05T07:57:07;4.50;99.90
20815;DHT22;10568;48.176;16.316;2023-03-05T07:59:34;4.60;99.90
20815;DHT22;10568;48.176;16.316;2023-03-05T08:02:00;4.60;99.90
20815;DHT22;10568;48.176;16.316;2023-03-05T08:04:26;4.60;99.90
20815;DHT22;10568;48.176;16.316;2023-03-05T08:06:52;4.60;99.90
20815;DHT22;10568;48.176;16.316;2023-03-05T08:09:18;4.70;99.90
20815;DHT22;10568;48.176;16.316;2023-03-05T08:11:45;4.70;99.90
20815;DHT22;10568;48.176;16.316;2023-03-05T08:14:11;4.90;99.90
20815;DHT22;10568;48.176;16.316;2023-03-05T08:16:38;4.90;99.90
20815;DHT22;10568;48.176;16.316;2023-03-05T08:19:04;4.80;99.90
20815;DHT22;10568;48.176;16.316;2023-03-05T08:21:32;5.00;99.90
20815;DHT22;10568;48.176;16.316;2023-03-05T08:24:00;5.10;99.90
20815;DHT22;10568;48.176;16.316;2023-03-05T08:26:29;5.20;99.90
20815;DHT22;10568;48.176;16.316;2023-03-05T08:28:56;5.30;99.90
20815;DHT22;10568;48.176;16.316;2023-03-05T08:31:24;5.20;99.90
20815;DHT22;10568;48.176;16.316;2023-03-05T08:33:52;5.10;99.90
20815;DHT22;10568;48.176;16.316;2023-03-05T08:36:18;5.10;99.90
20815;DHT22;10568;48.176;16.316;2023-03-05T08:38:44;5.20;99.90
20815;DHT22;10568;48.176;16.316;2023-03-05T08:41:12;5.20;99.90
20815;DHT22;10568;48.176;16.316;2023-03-05T08:43:38;5.20;99.90
20815;DHT22;10568;48.176;16.316;2023-03-05T08:46:04;5.20;99.90
20815;DHT22;10568;48.176;16.316;2023-03-05T08:48:31;5.30;99.90
20815;DHT22;10568;48.176;16.316;2023-03-05T08:50:57;5.20;99.90
20815;DHT22;10568;48.176;16.316;2023-03-05T08:53:28;5.20;99.90
20815;DHT22;10568;48.176;16.316;2023-03-05T08:55:56;5.30;99.90
20815;DHT22;10568;48.176;16.316;2023-03-05T08:58:23;5.40;99.90
20815;DHT22;10568;48.176;16.316;2023-03-05T09:00:49;5.40;99.90
20815;DHT22;10568;48.176;16.316;2023-03-05T09:03:15;5.50;99.90
20815;DHT22;10568;48.176;16.316;2023-03-05T09:05:41;5.40;99.90
20815;DHT22;10568;48.176;16.316;2023-03-05T09:08:06;5.40;99.90
20815;DHT22;10568;48.176;16.316;2023-03-05T09:10:32;5.60;99.90
20815;DHT22;10568;48.176;16.316;2023-03-05T09:12:58;5.50;99.90
20815;DHT22;10568;48.176;16.316;2023-03-05T09:15:23;5.60;99.90
20815;DHT22;10568;48.176;16.316;2023-03-05T09:17:55;5.60;99.90
20815;DHT22;10568;48.176;16.316;2023-03-05T09:20:22;5.70;99.90
20815;DHT22;10568;48.176;16.316;2023-03-05T09:22:47;5.70;99.90
20815;DHT22;10568;48.176;16.316;2023-03-05T09:25:13;5.80;99.90
20815;DHT22;10568;48.176;16.316;2023-03-05T09:27:39;5.90;99.90
20815;DHT22;10568;48.176;16.316;2023-03-05T09:30:06;6.10;99.90
20815;DHT22;10568;48.176;16.316;2023-03-05T09:32:32;6.20;99.90
20815;DHT22;10568;48.176;16.316;2023-03-05T09:34:58;6.30;99.90
20815;DHT22;10568;48.176;16.316;2023-03-05T09:37:24;6.40;99.90
20815;DHT22;10568;48.176;16.316;2023-03-05T09:39:50;6.50;99.90
20815;DHT22;10568;48.176;16.316;2023-03-05T09:50:46;7.10;99.90
20815;DHT22;10568;48.176;16.316;2023-03-05T09:55:54;7.40;99.90
20815;DHT22;10568;48.176;16.316;2023-03-05T09:58:31;7.40;99.90
20815;DHT22;10568;48.176;16.316;2023-03-05T10:01:20;7.30;99.90
20815;DHT22;10568;48.176;16.316;2023-03-05T10:03:57;7.50;99.90
20815;DHT22;10568;48.176;16.316;2023-03-05T10:06:35;7.30;99.90
20815;DHT22;10568;48.176;16.316;2023-03-05T10:09:03;7.40;99.90
20815;DHT22;10568;48.176;16.316;2023-03-05T10:11:52;7.40;99.90
20815;DHT22;10568;48.176;16.316;2023-03-05T10:14:38;7.40;99.90
20815;DHT22;10568;48.176;16.316;2023-03-05T10:26:04;8.10;99.90
20815;DHT22;10568;48.176;16.316;2023-03-05T10:40:10;8.60;99.90
20815;DHT22;10568;48.176;16.316;2023-03-05T10:43:27;8.90;99.90
20815;DHT22;10568;48.176;16.316;2023-03-05T10:45:56;9.10;99.90
20815;DHT22;10568;48.176;16.316;2023-03-05T10:48:44;8.90;99.90
20815;DHT22;10568;48.176;16.316;2023-03-05T10:56:20;9.30;99.90
20815;DHT22;10568;48.176;16.316;2023-03-05T10:58:46;9.10;99.90
20815;DHT22;10568;48.176;16.316;2023-03-05T11:03:52;9.10;99.90
20815;DHT22;10568;48.176;16.316;2023-03-05T11:06:34;9.20;99.90
20815;DHT22;10568;48.176;16.316;2023-03-05T11:09:18;9.10;99.90
20815;DHT22;10568;48.176;16.316;2023-03-05T11:12:17;8.70;99.90
20815;DHT22;10568;48.176;16.316;2023-03-05T11:17:47;9.00;99.90
20815;DHT22;10568;48.176;16.316;2023-03-05T11:20:29;9.20;99.90
20815;DHT22;10568;48.176;16.316;2023-03-05T11:34:05;9.30;99.90
20815;DHT22;10568;48.176;16.316;2023-03-05T11:36:40;9.30;99.90
20815;DHT22;10568;48.176;16.316;2023-03-05T11:41:39;9.20;99.90
20815;DHT22;10568;48.176;16.316;2023-03-05T11:46:50;9.10;99.90
20815;DHT22;10568;48.176;16.316;2023-03-05T11:49:23;8.90;99.90
20815;DHT22;10568;48.176;16.316;2023-03-05T11:57:14;8.20;99.90
20815;DHT22;10568;48.176;16.316;2023-03-05T11:59:42;7.90;99.90
20815;DHT22;10568;48.176;16.316;2023-03-05T12:02:27;7.70;99.90
20815;DHT22;10568;48.176;16.316;2023-03-05T12:04:53;7.60;99.90
20815;DHT22;10568;48.176;16.316;2023-03-05T12:07:41;7.40;99.90
20815;DHT22;10568;48.176;16.316;2023-03-05T12:10:21;7.30;99.90
20815;DHT22;10568;48.176;16.316;2023-03-05T12:16:26;7.00;99.90
20815;DHT22;10568;48.176;16.316;2023-03-05T12:21:33;6.90;99.90
20815;DHT22;10568;48.176;16.316;2023-03-05T12:24:31;6.80;99.90
20815;DHT22;10568;48.176;16.316;2023-03-05T12:31:58;6.70;99.90
20815;DHT22;10568;48.176;16.316;2023-03-05T12:39:45;6.70;99.90
20815;DHT22;10568;48.176;16.316;2023-03-05T12:52:56;6.60;99.90
20815;DHT22;10568;48.176;16.316;2023-03-05T12:55:23;6.50;99.90
20815;DHT22;10568;48.176;16.316;2023-03-05T13:01:11;6.40;99.90
20815;DHT22;10568;48.176;16.316;2023-03-05T13:09:02;6.30;99.90
20815;DHT22;10568;48.176;16.316;2023-03-05T13:11:31;6.30;99.90
20815;DHT22;10568;48.176;16.316;2023-03-05T13:14:00;6.30;99.90
20815;DHT22;10568;48.176;16.316;2023-03-05T13:16:30;6.10;99.90
20815;DHT22;10568;48.176;16.316;2023-03-05T13:19:01;6.00;99.90
20815;DHT22;10568;48.176;16.316;2023-03-05T13:21:31;6.00;99.90
20815;DHT22;10568;48.176;16.316;2023-03-05T13:23:59;6.00;99.90
20815;DHT22;10568;48.176;16.316;2023-03-05T13:26:39;5.90;99.90
20815;DHT22;10568;48.176;16.316;2023-03-05T13:29:23;5.80;99.90
20815;DHT22;10568;48.176;16.316;2023-03-05T13:32:01;5.80;99.90
20815;DHT22;10568;48.176;16.316;2023-03-05T13:34:30;5.70;99.90
20815;DHT22;10568;48.176;16.316;2023-03-05T13:37:00;5.60;99.90
20815;DHT22;10568;48.176;16.316;2023-03-05T13:40:12;5.60;99.90
20815;DHT22;10568;48.176;16.316;2023-03-05T13:42:29;5.60;99.90
20815;DHT22;10568;48.176;16.316;2023-03-05T13:45:34;5.50;99.90
20815;DHT22;10568;48.176;16.316;2023-03-05T13:48:04;5.50;99.90
20815;DHT22;10568;48.176;16.316;2023-03-05T13:50:34;5.60;99.90
20815;DHT22;10568;48.176;16.316;2023-03-05T13:53:33;5.50;99.90
20815;DHT22;10568;48.176;16.316;2023-03-05T13:56:06;5.40;99.90
20815;DHT22;10568;48.176;16.316;2023-03-05T13:58:49;5.40;99.90
20815;DHT22;10568;48.176;16.316;2023-03-05T14:01:32;5.40;99.90
20815;DHT22;10568;48.176;16.316;2023-03-05T14:04:24;5.40;99.90
20815;DHT22;10568;48.176;16.316;2023-03-05T14:07:00;5.40;99.90
20815;DHT22;10568;48.176;16.316;2023-03-05T14:15:24;5.30;99.90
20815;DHT22;10568;48.176;16.316;2023-03-05T14:17:50;5.30;99.90
20815;DHT22;10568;48.176;16.316;2023-03-05T14:20:24;5.30;99.90
20815;DHT22;10568;48.176;16.316;2023-03-05T14:22:53;5.30;99.90
20815;DHT22;10568;48.176;16.316;2023-03-05T14:25:35;5.40;99.90
20815;DHT22;10568;48.176;16.316;2023-03-05T14:28:27;5.40;99.90
20815;DHT22;10568;48.176;16.316;2023-03-05T14:30:55;5.40;99.90
20815;DHT22;10568;48.176;16.316;2023-03-05T14:33:26;5.40;99.90
20815;DHT22;10568;48.176;16.316;2023-03-05T14:35:55;5.40;99.90
20815;DHT22;10568;48.176;16.316;2023-03-05T14:38:30;5.40;99.90
20815;DHT22;10568;48.176;16.316;2023-03-05T14:41:19;5.40;99.90
20815;DHT22;10568;48.176;16.316;2023-03-05T14:43:44;5.40;99.90
20815;DHT22;10568;48.176;16.316;2023-03-05T14:46:10;5.40;99.90
20815;DHT22;10568;48.176;16.316;2023-03-05T14:48:36;5.40;99.90
20815;DHT22;10568;48.176;16.316;2023-03-05T14:51:02;5.40;99.90
20815;DHT22;10568;48.176;16.316;2023-03-05T14:53:37;5.40;99.90
20815;DHT22;10568;48.176;16.316;2023-03-05T14:56:05;5.50;99.90
20815;DHT22;10568;48.176;16.316;2023-03-05T14:58:40;5.60;99.90
20815;DHT22;10568;48.176;16.316;2023-03-05T15:01:10;5.50;99.90
20815;DHT22;10568;48.176;16.316;2023-03-05T15:03:36;5.60;99.90
20815;DHT22;10568;48.176;16.316;2023-03-05T15:06:04;5.60;99.90
20815;DHT22;10568;48.176;16.316;2023-03-05T15:08:31;5.60;99.90
20815;DHT22;10568;48.176;16.316;2023-03-05T15:10:58;5.50;99.90
20815;DHT22;10568;48.176;16.316;2023-03-05T15:13:25;5.60;99.90
20815;DHT22;10568;48.176;16.316;2023-03-05T15:15:52;5.50;99.90
20815;DHT22;10568;48.176;16.316;2023-03-05T15:18:21;5.50;99.90
20815;DHT22;10568;48.176;16.316;2023-03-05T15:20:49;5.50;99.90
20815;DHT22;10568;48.176;16.316;2023-03-05T15:23:19;5.60;99.90
20815;DHT22;10568;48.176;16.316;2023-03-05T15:25:48;5.50;99.90
20815;DHT22;10568;48.176;16.316;2023-03-05T15:28:14;5.50;99.90
20815;DHT22;10568;48.176;16.316;2023-03-05T15:30:44;5.50;99.90
20815;DHT22;10568;48.176;16.316;2023-03-05T15:33:13;5.50;99.90
20815;DHT22;10568;48.176;16.316;2023-03-05T15:35:42;5.50;99.90
20815;DHT22;10568;48.176;16.316;2023-03-05T15:38:10;5.40;99.90
20815;DHT22;10568;48.176;16.316;2023-03-05T15:40:36;5.40;99.90
20815;DHT22;10568;48.176;16.316;2023-03-05T15:43:02;5.40;99.90
20815;DHT22;10568;48.176;16.316;2023-03-05T15:45:29;5.40;99.90
20815;DHT22;10568;48.176;16.316;2023-03-05T15:47:58;5.50;99.90
20815;DHT22;10568;48.176;16.316;2023-03-05T15:50:24;5.50;99.90
20815;DHT22;10568;48.176;16.316;2023-03-05T15:52:51;5.50;99.90
20815;DHT22;10568;48.176;16.316;2023-03-05T15:55:17;5.40;99.90
20815;DHT22;10568;48.176;16.316;2023-03-05T15:57:45;5.40;99.90
20815;DHT22;10568;48.176;16.316;2023-03-05T16:00:14;5.40;99.90
20815;DHT22;10568;48.176;16.316;2023-03-05T16:02:40;5.30;99.90
20815;DHT22;10568;48.176;16.316;2023-03-05T16:05:09;5.30;99.90
20815;DHT22;10568;48.176;16.316;2023-03-05T16:07:38;5.30;99.90
20815;DHT22;10568;48.176;16.316;2023-03-05T16:10:05;5.20;99.90
20815;DHT22;10568;48.176;16.316;2023-03-05T16:12:35;5.20;99.90
20815;DHT22;10568;48.176;16.316;2023-03-05T16:15:10;5.20;99.90
20815;DHT22;10568;48.176;16.316;2023-03-05T16:17:38;5.20;99.90
20815;DHT22;10568;48.176;16.316;2023-03-05T16:20:06;5.20;99.90
20815;DHT22;10568;48.176;16.316;2023-03-05T16:22:33;5.10;99.90
20815;DHT22;10568;48.176;16.316;2023-03-05T16:24:59;5.20;99.90
20815;DHT22;10568;48.176;16.316;2023-03-05T16:27:27;5.10;99.90
20815;DHT22;10568;48.176;16.316;2023-03-05T16:29:53;5.10;99.90
20815;DHT22;10568;48.176;16.316;2023-03-05T16:32:19;5.10;99.90
20815;DHT22;10568;48.176;16.316;2023-03-05T16:34:45;5.10;99.90
20815;DHT22;10568;48.176;16.316;2023-03-05T16:37:19;5.10;99.90
20815;DHT22;10568;48.176;16.316;2023-03-05T16:39:46;5.00;99.90
20815;DHT22;10568;48.176;16.316;2023-03-05T16:42:13;5.00;99.90
20815;DHT22;10568;48.176;16.316;2023-03-05T16:44:40;5.00;99.90
20815;DHT22;10568;48.176;16.316;2023-03-05T16:47:07;4.90;99.90
20815;DHT22;10568;48.176;16.316;2023-03-05T16:49:35;4.90;99.90
20815;DHT22;10568;48.176;16.316;2023-03-05T16:52:02;4.90;99.90
20815;DHT22;10568;48.176;16.316;2023-03-05T16:54:30;4.90;99.90
20815;DHT22;10568;48.176;16.316;2023-03-05T16:56:57;4.90;99.90
20815;DHT22;10568;48.176;16.316;2023-03-05T16:59:24;4.80;99.90
20815;DHT22;10568;48.176;16.316;2023-03-05T17:01:50;4.80;99.90
20815;DHT22;10568;48.176;16.316;2023-03-05T17:04:17;4.70;99.90
20815;DHT22;10568;48.176;16.316;2023-03-05T17:06:46;4.70;99.90
20815;DHT22;10568;48.176;16.316;2023-03-05T17:09:14;4.70;99.90
20815;DHT22;10568;48.176;16.316;2023-03-05T17:11:40;4.70;99.90
20815;DHT22;10568;48.176;16.316;2023-03-05T17:14:08;4.60;99.90
20815;DHT22;10568;48.176;16.316;2023-03-05T17:16:34;4.60;99.90
20815;DHT22;10568;48.176;16.316;2023-03-05T17:19:02;4.60;99.90
20815;DHT22;10568;48.176;16.316;2023-03-05T17:21:29;4.60;99.90
20815;DHT22;10568;48.176;16.316;2023-03-05T17:23:55;4.60;99.90
20815;DHT22;10568;48.176;16.316;2023-03-05T17:26:22;4.60;99.90
20815;DHT22;10568;48.176;16.316;2023-03-05T17:28:50;4.60;99.90
20815;DHT22;10568;48.176;16.316;2023-03-05T17:31:17;4.50;99.90
20815;DHT22;10568;48.176;16.316;2023-03-05T17:33:43;4.50;99.90
20815;DHT22;10568;48.176;16.316;2023-03-05T17:36:14;4.50;99.90